Time;durP1;ratioP1;P1;durP2;ratioP2;P2;SDS_P1;SDS_P2;PMS_P1;PMS_P2;Temp;Humidity;BMP_temperature;BMP_pressure;BME280_temperature;BME280_humidity;BME280_pressure;Samples;Min_cycle;Max_cycle;Signal;HPM_P1;HPM_P2
2024/01/03 00:01:22;;;;;;;1.02;0.65;;;9.70;99.90;;;;;;5014924;28;20125;-48
2024/01/03 00:03:49;;;;;;;0.90;0.52;;;9.70;99.90;;;;;;5019545;28;20095;-47
2024/01/03 00:06:16;;;;;;;0.70;0.60;;;9.80;99.90;;;;;;5019265;28;20034;-49
2024/01/03 00:08:43;;;;;;;1.45;0.70;;;9.70;99.90;;;;;;5015682;28;20038;-47
2024/01/03 00:11:19;;;;;;;3.40;1.08;;;9.70;99.90;;;;;;5021079;28;20046;-49
2024/01/03 00:14:19;;;;;;;1.98;0.70;;;9.70;99.90;;;;;;5015979;28;20125;-48
2024/01/03 00:16:46;;;;;;;1.20;0.80;;;9.60;99.90;;;;;;5010845;28;20042;-53
2024/01/03 00:19:18;;;;;;;1.02;0.80;;;9.60;99.90;;;;;;5012576;28;20128;-48
2024/01/03 00:21:45;;;;;;;1.40;0.70;;;9.60;99.90;;;;;;5012097;28;20038;-47
2024/01/03 00:24:19;;;;;;;1.48;0.50;;;9.60;99.90;;;;;;5010882;28;20061;-50
2024/01/03 00:26:47;;;;;;;0.63;0.55;;;9.60;99.90;;;;;;5013214;28;20666;-48
2024/01/03 00:29:23;;;;;;;0.50;0.50;;;9.60;99.90;;;;;;5012630;28;20072;-48
2024/01/03 00:31:51;;;;;;;1.75;0.70;;;9.60;99.90;;;;;;5012218;28;20041;-48
2024/01/03 00:34:21;;;;;;;2.28;0.60;;;9.60;99.90;;;;;;5010753;28;20435;-49
2024/01/03 00:36:54;;;;;;;0.77;0.70;;;9.70;99.90;;;;;;5011960;28;20042;-48
2024/01/03 00:39:26;;;;;;;1.35;0.80;;;9.60;99.90;;;;;;5012908;28;20124;-49
2024/01/03 00:41:54;;;;;;;2.10;0.88;;;9.70;99.90;;;;;;5015826;28;20049;-54
2024/01/03 00:44:21;;;;;;;2.70;0.75;;;9.60;99.90;;;;;;5013619;28;20107;-51
2024/01/03 00:46:49;;;;;;;1.13;0.63;;;9.70;99.90;;;;;;5011549;28;20042;-51
2024/01/03 00:49:17;;;;;;;2.10;0.80;;;9.70;99.90;;;;;;5010852;28;20103;-47
2024/01/03 00:51:48;;;;;;;1.48;0.60;;;9.80;99.90;;;;;;5012529;28;20057;-51
2024/01/03 00:54:17;;;;;;;1.05;0.55;;;9.80;99.90;;;;;;5012191;28;20273;-51
2024/01/03 00:56:46;;;;;;;1.85;0.68;;;9.70;99.90;;;;;;5011989;28;20053;-51
2024/01/03 00:59:15;;;;;;;1.05;0.60;;;9.80;99.90;;;;;;5012826;28;20034;-48
2024/01/03 01:01:43;;;;;;;1.75;0.60;;;9.80;99.90;;;;;;5014659;28;20096;-48
2024/01/03 01:04:11;;;;;;;2.47;0.82;;;9.80;99.90;;;;;;5010465;28;20068;-52
2024/01/03 01:06:41;;;;;;;2.08;0.80;;;9.80;99.90;;;;;;5008432;28;20038;-50
2024/01/03 01:09:08;;;;;;;2.58;0.70;;;9.90;99.90;;;;;;5006913;28;20037;-53
2024/01/03 01:11:36;;;;;;;1.65;0.70;;;9.90;99.90;;;;;;5012297;28;20046;-50
2024/01/03 01:14:03;;;;;;;2.17;0.70;;;9.90;99.90;;;;;;5018903;28;20052;-51
2024/01/03 01:16:30;;;;;;;3.22;0.70;;;9.80;99.90;;;;;;5012054;28;20050;-51
2024/01/03 01:18:57;;;;;;;3.33;0.73;;;9.90;99.90;;;;;;5015521;28;20244;-48
2024/01/03 01:21:24;;;;;;;1.75;0.70;;;9.90;99.90;;;;;;5011366;28;20068;-46
2024/01/03 01:23:51;;;;;;;2.40;0.73;;;9.90;99.90;;;;;;5012821;28;20058;-50
2024/01/03 01:26:18;;;;;;;1.75;0.80;;;9.90;99.90;;;;;;5009517;28;20042;-48
2024/01/03 01:28:45;;;;;;;1.58;0.63;;;9.90;99.90;;;;;;5014126;28;20076;-52
2024/01/03 01:31:12;;;;;;;2.03;0.73;;;9.90;99.90;;;;;;5011856;28;20085;-48
2024/01/03 01:33:39;;;;;;;1.17;0.60;;;9.90;99.90;;;;;;5009571;28;20573;-50
2024/01/03 01:36:06;;;;;;;1.13;0.80;;;9.80;99.90;;;;;;5010866;28;20167;-49
2024/01/03 01:38:33;;;;;;;2.42;0.82;;;9.80;99.90;;;;;;5009754;28;20053;-47
2024/01/03 01:41:00;;;;;;;1.77;0.80;;;9.80;99.90;;;;;;5011456;28;20127;-49
2024/01/03 01:43:27;;;;;;;2.22;1.08;;;9.80;99.90;;;;;;5011558;28;20049;-51
2024/01/03 01:45:54;;;;;;;1.02;0.68;;;9.80;99.90;;;;;;5016077;28;20064;-49
2024/01/03 01:48:22;;;;;;;2.75;1.00;;;9.80;99.90;;;;;;5012897;28;20523;-53
2024/01/03 01:50:50;;;;;;;0.60;0.60;;;9.70;99.90;;;;;;5012457;28;20050;-49
2024/01/03 01:53:17;;;;;;;3.00;0.73;;;9.60;99.90;;;;;;5010235;28;20116;-47
2024/01/03 01:55:45;;;;;;;2.20;0.88;;;9.60;99.90;;;;;;5010011;28;20129;-51
2024/01/03 01:58:14;;;;;;;1.88;0.60;;;9.60;99.90;;;;;;5008779;28;20052;-48
2024/01/03 02:00:42;;;;;;;1.17;0.65;;;9.50;99.90;;;;;;5006299;28;20511;-51
2024/01/03 02:03:10;;;;;;;0.93;0.70;;;9.50;99.90;;;;;;5038297;28;20070;-47
2024/01/03 02:05:38;;;;;;;1.40;0.70;;;9.40;99.90;;;;;;5006691;28;20128;-53
2024/01/03 02:08:10;;;;;;;0.60;0.52;;;9.40;99.90;;;;;;5005807;28;20463;-48
2024/01/03 02:10:38;;;;;;;0.98;0.68;;;9.30;99.90;;;;;;5007722;28;20049;-48
2024/01/03 02:13:06;;;;;;;0.80;0.68;;;9.30;99.90;;;;;;5007049;28;20538;-49
2024/01/03 02:15:32;;;;;;;1.42;0.70;;;9.20;99.90;;;;;;5003378;28;20037;-51
2024/01/03 02:18:07;;;;;;;1.42;0.80;;;9.20;99.90;;;;;;5019812;28;20061;-49
2024/01/03 02:20:36;;;;;;;1.00;0.77;;;9.10;99.90;;;;;;5006938;28;20095;-48
2024/01/03 02:23:04;;;;;;;1.20;0.68;;;9.10;99.90;;;;;;5007500;28;20117;-49
2024/01/03 02:25:31;;;;;;;1.33;0.68;;;9.10;99.90;;;;;;5008202;28;20506;-48
2024/01/03 02:27:58;;;;;;;1.27;0.80;;;9.10;99.90;;;;;;5007944;28;20611;-50
2024/01/03 02:30:25;;;;;;;1.25;0.80;;;9.10;99.90;;;;;;5007355;28;20542;-49
2024/01/03 02:32:52;;;;;;;1.20;0.70;;;9.10;99.90;;;;;;5008970;28;20348;-51
2024/01/03 02:35:19;;;;;;;2.10;0.70;;;9.20;99.90;;;;;;5006995;28;20034;-54
2024/01/03 02:37:46;;;;;;;0.75;0.70;;;9.20;99.90;;;;;;5006852;28;20037;-52
2024/01/03 02:40:13;;;;;;;0.60;0.60;;;9.20;99.90;;;;;;5006528;28;20279;-49
2024/01/03 02:42:40;;;;;;;0.90;0.70;;;9.20;99.90;;;;;;5008287;28;20042;-48
2024/01/03 02:45:07;;;;;;;1.17;0.70;;;9.10;99.90;;;;;;5005692;28;20054;-51
2024/01/03 02:47:35;;;;;;;1.30;0.70;;;9.10;99.90;;;;;;5008181;28;20030;-50
2024/01/03 02:50:02;;;;;;;1.95;0.70;;;9.10;99.90;;;;;;5006493;28;20232;-51
2024/01/03 02:52:30;;;;;;;1.48;0.80;;;9.10;99.90;;;;;;5008582;28;20167;-51
2024/01/03 02:54:57;;;;;;;3.45;0.88;;;9.10;99.90;;;;;;5010550;28;20049;-52
2024/01/03 02:57:25;;;;;;;1.65;0.80;;;9.10;99.90;;;;;;5009368;28;20125;-48
2024/01/03 02:59:52;;;;;;;3.17;0.82;;;9.10;99.90;;;;;;5009214;28;20171;-50
2024/01/03 03:02:19;;;;;;;2.70;0.82;;;9.10;99.90;;;;;;5007047;28;20049;-50
2024/01/03 03:04:46;;;;;;;2.30;0.80;;;9.00;99.90;;;;;;5009939;28;20446;-49
2024/01/03 03:07:13;;;;;;;1.10;0.73;;;9.10;99.90;;;;;;5008204;28;20034;-54
2024/01/03 03:09:40;;;;;;;3.13;0.98;;;9.10;99.90;;;;;;5006511;28;20044;-48
2024/01/03 03:12:07;;;;;;;2.65;1.00;;;9.00;99.90;;;;;;5007656;28;20498;-50
2024/01/03 03:14:34;;;;;;;3.58;1.63;;;9.00;99.90;;;;;;5006312;28;20096;-49
2024/01/03 03:17:01;;;;;;;2.30;0.80;;;9.00;99.90;;;;;;5007988;28;20046;-48
2024/01/03 03:19:28;;;;;;;1.88;0.90;;;9.00;99.90;;;;;;5008965;28;20473;-51
2024/01/03 03:21:55;;;;;;;2.20;1.00;;;9.00;99.90;;;;;;5006442;28;20550;-48
2024/01/03 03:24:22;;;;;;;3.90;1.00;;;8.90;99.90;;;;;;5005248;28;20050;-49
2024/01/03 03:26:49;;;;;;;2.97;0.90;;;8.90;99.90;;;;;;5006757;28;20069;-52
2024/01/03 03:29:15;;;;;;;4.00;0.90;;;9.00;99.90;;;;;;5005430;28;20069;-49
2024/01/03 03:31:42;;;;;;;4.20;1.10;;;9.00;99.90;;;;;;5008172;28;20419;-52
2024/01/03 03:34:09;;;;;;;4.80;1.10;;;9.00;99.90;;;;;;5008543;28;20045;-49
2024/01/03 03:36:36;;;;;;;4.85;1.25;;;9.10;99.90;;;;;;5011572;28;20132;-49
2024/01/03 03:39:07;;;;;;;4.18;1.02;;;9.20;99.90;;;;;;5005133;28;20053;-52
2024/01/03 03:41:35;;;;;;;2.15;1.13;;;9.20;99.90;;;;;;5006934;28;20474;-49
2024/01/03 03:44:02;;;;;;;3.47;1.20;;;9.20;99.90;;;;;;5010655;28;20147;-53
2024/01/03 03:46:29;;;;;;;5.05;1.20;;;9.30;99.90;;;;;;5007829;28;20137;-49
2024/01/03 03:48:56;;;;;;;6.88;1.27;;;9.30;99.90;;;;;;5007941;28;20436;-49
2024/01/03 03:51:23;;;;;;;3.20;1.15;;;9.30;99.90;;;;;;5008045;28;20046;-55
2024/01/03 03:53:50;;;;;;;6.30;1.25;;;9.30;99.90;;;;;;5009456;28;20042;-54
2024/01/03 03:56:22;;;;;;;5.45;1.20;;;9.30;99.90;;;;;;5007323;28;20045;-53
2024/01/03 03:58:49;;;;;;;3.63;1.40;;;9.20;99.90;;;;;;5009823;28;20577;-51
2024/01/03 04:01:16;;;;;;;5.32;1.15;;;9.10;99.90;;;;;;5003768;28;20046;-54
2024/01/03 04:03:43;;;;;;;7.22;1.20;;;9.10;99.90;;;;;;5010947;28;20049;-52
2024/01/03 04:06:12;;;;;;;4.20;1.38;;;9.00;99.90;;;;;;5006559;28;20165;-54
2024/01/03 04:08:43;;;;;;;4.63;1.02;;;9.00;99.90;;;;;;5010454;28;20419;-53
2024/01/03 04:11:11;;;;;;;8.70;1.92;;;8.90;99.90;;;;;;5007397;28;20036;-53
2024/01/03 04:13:39;;;;;;;3.38;1.02;;;8.90;99.90;;;;;;5009531;28;20582;-56
2024/01/03 04:16:08;;;;;;;2.88;0.93;;;8.80;99.90;;;;;;5009113;28;20127;-52
2024/01/03 04:18:35;;;;;;;3.88;1.15;;;8.70;99.90;;;;;;5010178;28;20267;-55
2024/01/03 04:21:08;;;;;;;3.85;1.13;;;8.80;99.90;;;;;;5010386;28;20041;-48
2024/01/03 04:23:35;;;;;;;3.97;1.10;;;8.80;99.90;;;;;;5011108;28;20042;-50
2024/01/03 04:26:02;;;;;;;2.60;1.30;;;8.90;99.90;;;;;;5011086;28;20179;-53
2024/01/03 04:28:29;;;;;;;8.20;1.20;;;8.90;99.90;;;;;;5012132;28;20147;-52
2024/01/03 04:30:56;;;;;;;4.30;1.25;;;8.90;99.90;;;;;;5011787;28;20045;-53
2024/01/03 04:33:23;;;;;;;1.67;0.90;;;9.00;99.90;;;;;;5012064;28;20046;-50
2024/01/03 04:35:50;;;;;;;2.25;1.00;;;9.00;99.90;;;;;;5010190;28;20268;-49
2024/01/03 04:38:17;;;;;;;1.90;0.95;;;9.10;99.90;;;;;;5011089;28;20038;-55
2024/01/03 04:40:45;;;;;;;2.42;0.80;;;9.20;99.90;;;;;;5010435;28;20365;-49
2024/01/03 04:43:12;;;;;;;2.92;1.15;;;9.20;99.90;;;;;;5011542;28;20289;-55
2024/01/03 04:45:39;;;;;;;3.05;1.10;;;9.20;99.90;;;;;;5010162;28;20037;-53
2024/01/03 04:48:06;;;;;;;5.53;1.33;;;9.20;99.90;;;;;;5005035;28;20041;-51
2024/01/03 04:50:34;;;;;;;5.28;1.27;;;9.10;99.90;;;;;;5011924;28;20720;-54
2024/01/03 04:53:02;;;;;;;3.13;1.20;;;9.20;99.90;;;;;;5010427;28;20048;-51
2024/01/03 04:55:29;;;;;;;2.45;1.00;;;9.10;99.90;;;;;;5020136;28;20066;-49
2024/01/03 04:57:57;;;;;;;4.32;1.05;;;9.00;99.90;;;;;;5026061;28;20065;-53
2024/01/03 05:00:25;;;;;;;6.03;1.20;;;8.90;99.90;;;;;;5025526;28;20068;-51
2024/01/03 05:02:53;;;;;;;3.63;1.00;;;8.90;99.90;;;;;;5014755;28;20065;-52
2024/01/03 05:05:21;;;;;;;5.82;1.02;;;8.90;99.90;;;;;;5009312;28;20092;-49
2024/01/03 05:07:48;;;;;;;4.28;1.20;;;8.80;99.90;;;;;;5012652;28;20037;-50
2024/01/03 05:10:15;;;;;;;3.03;1.20;;;8.80;99.90;;;;;;5008206;28;20042;-49
2024/01/03 05:12:42;;;;;;;2.80;1.00;;;8.70;99.90;;;;;;5011569;28;20046;-48
2024/01/03 05:15:09;;;;;;;3.05;1.02;;;8.80;99.90;;;;;;5009121;28;20085;-52
2024/01/03 05:17:36;;;;;;;4.13;1.40;;;8.80;99.90;;;;;;5010027;28;20140;-49
2024/01/03 05:20:05;;;;;;;2.38;1.00;;;8.80;99.90;;;;;;5012058;28;20143;-53
2024/01/03 05:22:32;;;;;;;3.25;1.00;;;8.80;99.90;;;;;;5014146;28;20056;-50
2024/01/03 05:25:00;;;;;;;4.75;1.10;;;8.80;99.90;;;;;;5010576;28;20125;-52
2024/01/03 05:27:27;;;;;;;4.60;1.00;;;8.90;99.90;;;;;;5008162;28;20038;-52
2024/01/03 05:29:54;;;;;;;2.00;0.90;;;8.90;99.90;;;;;;5011949;28;20145;-49
2024/01/03 05:32:24;;;;;;;3.40;1.10;;;9.00;99.90;;;;;;5009942;28;20555;-53
2024/01/03 05:34:51;;;;;;;7.20;1.38;;;9.00;99.90;;;;;;5014053;28;20072;-52
2024/01/03 05:37:18;;;;;;;4.22;1.23;;;9.10;99.90;;;;;;5009848;28;20046;-48
2024/01/03 05:39:45;;;;;;;7.20;1.27;;;9.10;99.90;;;;;;5009286;28;20049;-53
2024/01/03 05:42:12;;;;;;;2.20;1.00;;;9.10;99.90;;;;;;5002755;28;20049;-50
2024/01/03 05:44:39;;;;;;;3.33;1.20;;;9.10;99.90;;;;;;5006286;28;20042;-55
2024/01/03 05:47:06;;;;;;;2.88;1.10;;;9.20;99.90;;;;;;5005593;28;20444;-48
2024/01/03 05:49:36;;;;;;;4.50;1.30;;;9.20;99.90;;;;;;5008063;28;20041;-52
2024/01/03 05:52:04;;;;;;;3.28;1.08;;;9.20;99.90;;;;;;5005675;28;20060;-52
2024/01/03 05:54:32;;;;;;;4.30;1.30;;;9.30;99.90;;;;;;5005800;28;20046;-53
2024/01/03 05:57:00;;;;;;;4.30;1.50;;;9.30;99.90;;;;;;5010393;28;20054;-50
2024/01/03 05:59:28;;;;;;;3.25;1.10;;;9.20;99.90;;;;;;5006600;28;20065;-49
2024/01/03 06:01:55;;;;;;;3.50;1.20;;;9.10;99.90;;;;;;5005955;28;20054;-54
2024/01/03 06:04:21;;;;;;;2.70;1.20;;;9.10;99.90;;;;;;5008738;28;20042;-51
2024/01/03 06:06:48;;;;;;;3.47;1.20;;;9.20;99.90;;;;;;5010182;28;20056;-47
2024/01/03 06:09:16;;;;;;;4.55;1.20;;;9.10;99.90;;;;;;5006012;28;20375;-52
2024/01/03 06:11:42;;;;;;;3.83;1.10;;;9.10;99.90;;;;;;5007565;28;20046;-53
2024/01/03 06:14:09;;;;;;;3.70;1.20;;;9.00;99.90;;;;;;5005883;28;20056;-49
2024/01/03 06:16:36;;;;;;;2.30;1.00;;;9.00;99.90;;;;;;5014178;28;20041;-52
2024/01/03 06:19:03;;;;;;;4.93;1.27;;;9.00;99.90;;;;;;5013532;28;20049;-52
2024/01/03 06:21:32;;;;;;;4.80;1.42;;;8.90;99.90;;;;;;5009666;28;20140;-49
2024/01/03 06:23:59;;;;;;;5.10;1.27;;;9.00;99.90;;;;;;5011501;28;20048;-53
2024/01/03 06:26:30;;;;;;;4.10;1.35;;;9.10;99.90;;;;;;5008558;28;20060;-54
2024/01/03 06:28:57;;;;;;;4.50;1.42;;;9.10;99.90;;;;;;5011663;28;20050;-51
2024/01/03 06:31:24;;;;;;;4.35;1.45;;;9.20;99.90;;;;;;5008253;28;20069;-55
2024/01/03 06:33:51;;;;;;;6.57;1.50;;;9.20;99.90;;;;;;5011280;28;20430;-52
2024/01/03 06:36:20;;;;;;;4.43;1.58;;;9.10;99.90;;;;;;5006892;28;20049;-52
2024/01/03 06:38:50;;;;;;;6.82;1.70;;;9.10;99.90;;;;;;5001522;28;20034;-48
2024/01/03 06:41:18;;;;;;;3.20;1.10;;;9.10;99.90;;;;;;5015938;28;20343;-50
2024/01/03 06:43:45;;;;;;;5.88;1.77;;;9.00;99.90;;;;;;5009845;28;20068;-51
2024/01/03 06:46:12;;;;;;;5.47;1.50;;;9.00;99.90;;;;;;5006365;28;20289;-50
2024/01/03 06:48:39;;;;;;;6.90;1.70;;;9.00;99.90;;;;;;5006787;28;20037;-49
2024/01/03 06:51:07;;;;;;;7.63;1.65;;;9.10;99.90;;;;;;5012753;28;20049;-53
2024/01/03 06:53:34;;;;;;;4.55;1.40;;;9.20;99.90;;;;;;5007445;28;20076;-48
2024/01/03 06:56:01;;;;;;;5.60;1.50;;;9.10;99.90;;;;;;5008699;28;20181;-50
2024/01/03 06:58:28;;;;;;;5.28;1.55;;;9.10;99.90;;;;;;5007881;28;20038;-48
2024/01/03 07:00:55;;;;;;;4.65;1.67;;;9.20;99.90;;;;;;5009219;28;20505;-50
2024/01/03 07:03:22;;;;;;;5.88;1.65;;;9.30;99.90;;;;;;5007824;28;20056;-53
2024/01/03 07:05:49;;;;;;;7.90;1.60;;;9.30;99.90;;;;;;5005763;28;20041;-48
2024/01/03 07:08:16;;;;;;;8.30;1.70;;;9.20;99.90;;;;;;5007274;28;20050;-55
2024/01/03 07:10:44;;;;;;;7.22;1.60;;;9.10;99.90;;;;;;5010320;28;20062;-53
2024/01/03 07:13:11;;;;;;;7.82;1.70;;;9.10;99.90;;;;;;5008992;28;20149;-48
2024/01/03 07:15:38;;;;;;;7.43;2.00;;;9.00;99.90;;;;;;5011138;28;20508;-50
2024/01/03 07:18:06;;;;;;;6.65;2.13;;;8.90;99.90;;;;;;5012466;28;20140;-48
2024/01/03 07:20:33;;;;;;;3.92;1.50;;;8.90;99.90;;;;;;5008930;28;20073;-47
2024/01/03 07:23:00;;;;;;;6.00;1.45;;;8.80;99.90;;;;;;5008581;28;20593;-51
2024/01/03 07:25:27;;;;;;;6.22;1.75;;;8.80;99.90;;;;;;5011495;28;20128;-50
2024/01/03 07:27:54;;;;;;;10.50;1.70;;;8.80;99.90;;;;;;5010896;28;20127;-49
2024/01/03 07:30:25;;;;;;;6.75;1.95;;;8.80;99.90;;;;;;5008633;28;20120;-51
2024/01/03 07:32:56;;;;;;;6.45;1.52;;;8.80;99.90;;;;;;5008992;28;20041;-48
2024/01/03 07:35:24;;;;;;;4.70;1.38;;;8.80;99.90;;;;;;5008894;28;20045;-51
2024/01/03 07:37:52;;;;;;;4.00;1.50;;;8.70;99.90;;;;;;5011148;28;20061;-52
2024/01/03 07:40:20;;;;;;;9.20;1.75;;;8.70;99.90;;;;;;5011822;28;20042;-49
2024/01/03 07:42:47;;;;;;;9.65;2.30;;;8.70;99.90;;;;;;5014383;28;20041;-52
2024/01/03 07:45:13;;;;;;;5.53;1.30;;;8.60;99.90;;;;;;5008587;28;20049;-50
2024/01/03 07:47:41;;;;;;;4.78;1.40;;;8.50;99.90;;;;;;5013915;28;20041;-50
2024/01/03 07:50:09;;;;;;;7.85;1.60;;;8.50;99.90;;;;;;5013299;28;20040;-50
2024/01/03 07:52:37;;;;;;;6.10;1.60;;;8.50;99.90;;;;;;5008766;28;20110;-49
2024/01/03 07:55:04;;;;;;;9.05;2.05;;;8.50;99.90;;;;;;5011155;28;20558;-49
2024/01/03 07:57:31;;;;;;;5.82;1.60;;;8.50;99.90;;;;;;5010312;28;20416;-49
2024/01/03 07:59:58;;;;;;;4.50;1.63;;;8.60;99.90;;;;;;5010505;28;20402;-51
2024/01/03 08:02:25;;;;;;;6.18;1.60;;;8.60;99.90;;;;;;5015224;28;20410;-51
2024/01/03 08:04:52;;;;;;;8.18;1.73;;;8.60;99.90;;;;;;5015857;28;20056;-49
2024/01/03 08:07:19;;;;;;;9.38;2.10;;;8.70;99.90;;;;;;5018296;28;20286;-49
2024/01/03 08:09:47;;;;;;;7.95;1.73;;;8.80;99.90;;;;;;5017535;28;20515;-47
2024/01/03 08:12:14;;;;;;;5.22;1.85;;;8.80;99.90;;;;;;5011422;28;20379;-50
2024/01/03 08:14:41;;;;;;;6.18;1.90;;;8.80;99.90;;;;;;5016534;28;20042;-49
2024/01/03 08:17:09;;;;;;;7.85;1.80;;;8.80;99.90;;;;;;5011802;28;20470;-47
2024/01/03 08:19:36;;;;;;;9.20;1.85;;;8.90;99.90;;;;;;5011528;28;20033;-51
2024/01/03 08:22:04;;;;;;;6.50;2.20;;;8.90;99.90;;;;;;5015244;28;20061;-49
2024/01/03 08:24:30;;;;;;;7.45;1.90;;;8.80;99.90;;;;;;5012352;28;20507;-48
2024/01/03 08:26:59;;;;;;;6.68;2.28;;;8.90;99.90;;;;;;5013392;28;20033;-51
2024/01/03 08:29:28;;;;;;;8.10;1.85;;;9.00;99.90;;;;;;5012182;28;20494;-53
2024/01/03 08:31:56;;;;;;;4.88;1.63;;;9.00;99.90;;;;;;5012353;28;20065;-48
2024/01/03 08:34:23;;;;;;;8.25;1.95;;;9.00;99.90;;;;;;5039493;28;20046;-49
2024/01/03 08:36:50;;;;;;;8.18;1.83;;;9.10;99.90;;;;;;5010197;28;20109;-48
2024/01/03 08:39:17;;;;;;;7.13;1.92;;;9.20;99.90;;;;;;5011907;28;20410;-49
2024/01/03 08:41:47;;;;;;;5.53;1.95;;;9.20;99.90;;;;;;5015367;28;20045;-53
2024/01/03 08:44:14;;;;;;;8.68;1.98;;;9.20;99.90;;;;;;5009899;28;20050;-52
2024/01/03 08:46:42;;;;;;;8.40;2.25;;;9.20;99.90;;;;;;5014210;28;20046;-51
2024/01/03 08:49:09;;;;;;;7.05;2.20;;;9.30;99.90;;;;;;5009295;28;20069;-53
2024/01/03 08:51:36;;;;;;;7.15;1.95;;;9.30;99.90;;;;;;5011290;28;20054;-52
2024/01/03 08:54:04;;;;;;;7.55;2.03;;;9.30;99.90;;;;;;5009550;28;20434;-49
2024/01/03 08:56:31;;;;;;;6.82;1.80;;;9.30;99.90;;;;;;5010667;28;20038;-49
2024/01/03 08:58:58;;;;;;;6.20;1.92;;;9.30;99.90;;;;;;5013149;28;20049;-51
2024/01/03 09:01:27;;;;;;;4.35;1.60;;;9.30;99.90;;;;;;5010698;28;20115;-50
2024/01/03 09:03:54;;;;;;;6.07;1.80;;;9.40;99.90;;;;;;5013373;28;20101;-50
2024/01/03 09:06:23;;;;;;;4.75;1.40;;;9.40;99.90;;;;;;5010431;28;20096;-49
2024/01/03 09:08:51;;;;;;;4.20;1.25;;;9.50;99.90;;;;;;5012119;28;20474;-55
2024/01/03 09:11:22;;;;;;;4.03;1.50;;;9.60;99.90;;;;;;5010218;28;20041;-54
2024/01/03 09:13:49;;;;;;;4.68;1.73;;;9.50;99.90;;;;;;5011989;28;20063;-50
2024/01/03 09:16:18;;;;;;;6.70;1.42;;;9.50;99.90;;;;;;5011069;28;20442;-50
2024/01/03 09:18:47;;;;;;;5.25;1.70;;;9.60;99.90;;;;;;5012844;28;20527;-52
2024/01/03 09:21:15;;;;;;;5.30;1.42;;;9.60;99.90;;;;;;5010443;28;20057;-55
2024/01/03 09:23:42;;;;;;;3.90;1.38;;;9.60;99.90;;;;;;5011850;28;20070;-52
2024/01/03 09:26:10;;;;;;;8.80;1.70;;;9.70;99.90;;;;;;5009618;28;20053;-49
2024/01/03 09:28:38;;;;;;;5.32;1.80;;;9.80;99.90;;;;;;5010364;28;20541;-52
2024/01/03 09:31:05;;;;;;;5.28;1.60;;;9.90;99.90;;;;;;5007045;28;20097;-50
2024/01/03 09:33:33;;;;;;;5.68;1.40;;;10.00;99.90;;;;;;5010322;28;20046;-52
2024/01/03 09:36:00;;;;;;;2.55;1.27;;;10.00;99.90;;;;;;5008614;28;20069;-48
2024/01/03 09:38:28;;;;;;;6.38;1.63;;;10.00;99.90;;;;;;5009549;28;20065;-51
2024/01/03 09:40:57;;;;;;;7.35;1.70;;;10.00;99.90;;;;;;5010583;28;20057;-49
2024/01/03 09:43:24;;;;;;;2.85;1.20;;;10.00;99.90;;;;;;5009477;28;20052;-49
2024/01/03 09:45:52;;;;;;;3.55;1.35;;;10.00;99.90;;;;;;5011978;28;20295;-51
2024/01/03 09:48:19;;;;;;;5.97;1.45;;;9.90;99.90;;;;;;5007891;28;20124;-52
2024/01/03 09:50:47;;;;;;;3.47;1.23;;;9.90;99.90;;;;;;5021684;28;20065;-52
2024/01/03 09:53:15;;;;;;;4.00;1.30;;;9.80;99.90;;;;;;5019335;28;20533;-47
2024/01/03 09:55:43;;;;;;;6.53;1.30;;;9.90;99.90;;;;;;5021455;28;20128;-49
2024/01/03 09:58:10;;;;;;;4.20;1.40;;;9.80;99.90;;;;;;5012940;28;20041;-51
2024/01/03 10:00:38;;;;;;;3.10;1.45;;;9.80;99.90;;;;;;5006740;28;20045;-50
2024/01/03 10:03:08;;;;;;;4.50;1.52;;;9.70;99.90;;;;;;5009834;28;20054;-49
2024/01/03 10:05:37;;;;;;;5.18;1.42;;;9.80;99.90;;;;;;5010093;28;20125;-48
2024/01/03 10:08:22;;;;;;;3.70;1.50;;;9.70;99.90;;;;;;5010397;28;20046;-49
2024/01/03 10:10:49;;;;;;;4.22;1.27;;;9.70;99.90;;;;;;5009244;28;20054;-53
2024/01/03 10:13:21;;;;;;;6.50;1.50;;;9.70;99.90;;;;;;5008119;28;20171;-50
2024/01/03 10:15:48;;;;;;;4.90;1.35;;;9.70;99.90;;;;;;5010516;28;20144;-52
2024/01/03 10:18:16;;;;;;;6.25;1.50;;;9.70;99.90;;;;;;5008904;28;20470;-50
2024/01/03 10:20:48;;;;;;;5.70;1.35;;;9.70;99.90;;;;;;5009978;28;20553;-53
2024/01/03 10:23:21;;;;;;;7.38;1.60;;;9.80;99.90;;;;;;5002420;28;20049;-52
2024/01/03 10:25:55;;;;;;;5.50;1.45;;;9.90;99.90;;;;;;5007822;28;20160;-50
2024/01/03 10:28:22;;;;;;;4.22;1.42;;;9.90;99.90;;;;;;5008074;28;20037;-49
2024/01/03 10:30:53;;;;;;;4.65;1.67;;;10.10;99.90;;;;;;5010195;28;21121;-47
2024/01/03 10:33:20;;;;;;;6.20;1.50;;;10.20;99.90;;;;;;5006409;28;20067;-48
2024/01/03 10:35:48;;;;;;;3.60;1.20;;;10.30;99.90;;;;;;5009361;28;20042;-52
2024/01/03 10:38:17;;;;;;;3.20;1.23;;;10.40;99.90;;;;;;5006956;28;20050;-51
2024/01/03 10:40:45;;;;;;;3.90;1.20;;;10.40;99.90;;;;;;5009268;28;20461;-48
2024/01/03 10:43:15;;;;;;;4.93;1.30;;;10.40;99.90;;;;;;5008863;28;20069;-48
2024/01/03 10:45:42;;;;;;;2.25;1.13;;;10.50;99.90;;;;;;5007149;28;20494;-47
2024/01/03 10:48:10;;;;;;;4.85;1.23;;;10.60;99.90;;;;;;5002852;28;20038;-50
2024/01/03 10:50:38;;;;;;;5.00;1.63;;;10.60;99.90;;;;;;5010006;28;20034;-47
2024/01/03 10:53:09;;;;;;;5.35;1.45;;;10.70;99.90;;;;;;5008324;28;20072;-48
2024/01/03 10:55:39;;;;;;;3.38;1.42;;;10.70;99.90;;;;;;5010053;28;20277;-48
2024/01/03 10:58:18;;;;;;;5.95;1.30;;;10.80;99.90;;;;;;5009506;28;20442;-49
2024/01/03 11:00:53;;;;;;;3.58;1.10;;;10.70;99.90;;;;;;5010043;28;20065;-49
2024/01/03 11:03:48;;;;;;;3.20;1.10;;;10.70;99.90;;;;;;5007108;28;20112;-47
2024/01/03 11:06:34;;;;;;;4.43;1.48;;;10.70;99.90;;;;;;5008609;28;20042;-51
2024/01/03 11:09:02;;;;;;;4.72;1.23;;;10.70;99.90;;;;;;5007744;28;20053;-51
2024/01/03 11:11:34;;;;;;;4.53;1.33;;;10.60;99.90;;;;;;5008672;28;20104;-52
2024/01/03 11:14:21;;;;;;;3.03;1.02;;;10.60;99.90;;;;;;5010131;28;20049;-49
2024/01/03 11:16:48;;;;;;;4.05;1.20;;;10.50;99.90;;;;;;5014771;28;20038;-53
2024/01/03 11:19:26;;;;;;;4.38;1.30;;;10.30;99.90;;;;;;5013170;28;20096;-53
2024/01/03 11:21:54;;;;;;;5.20;1.38;;;10.10;99.90;;;;;;5007986;28;20053;-50
2024/01/03 11:24:20;;;;;;;5.78;1.50;;;9.90;99.90;;;;;;5014155;28;20499;-50
2024/01/03 11:26:56;;;;;;;3.70;1.27;;;9.80;99.90;;;;;;5011600;28;20100;-55
2024/01/03 11:29:38;;;;;;;4.03;1.30;;;9.80;99.90;;;;;;5009015;28;20129;-47
2024/01/03 11:32:06;;;;;;;4.50;1.40;;;9.70;99.90;;;;;;5013952;28;20139;-51
2024/01/03 11:34:44;;;;;;;5.15;1.33;;;9.70;99.90;;;;;;5011736;28;20134;-49
2024/01/03 11:37:14;;;;;;;4.50;1.48;;;9.70;99.90;;;;;;5013348;28;20038;-53
2024/01/03 11:39:43;;;;;;;4.70;1.30;;;9.70;99.90;;;;;;5007969;28;20121;-51
2024/01/03 11:42:16;;;;;;;3.88;1.23;;;9.60;99.90;;;;;;5013020;28;20077;-47
2024/01/03 11:44:43;;;;;;;3.45;1.13;;;9.60;99.90;;;;;;5012194;28;20102;-51
2024/01/03 11:47:13;;;;;;;3.78;1.70;;;9.50;99.90;;;;;;5013240;28;20369;-51
2024/01/03 11:49:40;;;;;;;4.93;1.75;;;9.50;99.90;;;;;;5013097;28;20562;-53
2024/01/03 11:52:07;;;;;;;6.20;1.70;;;9.40;99.90;;;;;;5009164;28;20057;-50
2024/01/03 11:54:34;;;;;;;5.18;1.60;;;9.30;99.90;;;;;;5012639;28;20030;-49
2024/01/03 11:57:07;;;;;;;5.18;1.50;;;9.30;99.90;;;;;;5013985;28;20565;-53
2024/01/03 11:59:34;;;;;;;2.60;1.17;;;9.30;99.90;;;;;;5013973;28;20052;-51
2024/01/03 12:02:01;;;;;;;4.57;1.70;;;9.20;99.90;;;;;;5011731;28;20054;-50
2024/01/03 12:04:28;;;;;;;4.15;1.00;;;9.20;99.90;;;;;;5012272;28;20140;-47
2024/01/03 12:06:57;;;;;;;4.10;1.25;;;9.20;99.90;;;;;;5012494;28;20037;-55
2024/01/03 12:09:31;;;;;;;4.90;1.13;;;9.20;99.90;;;;;;5015947;28;20037;-50
2024/01/03 12:11:58;;;;;;;5.10;1.23;;;9.20;99.90;;;;;;5015246;28;20319;-49
2024/01/03 12:14:25;;;;;;;2.70;1.00;;;9.10;99.90;;;;;;5007523;28;20041;-47
2024/01/03 12:16:56;;;;;;;3.70;1.02;;;9.20;99.90;;;;;;5009138;28;20129;-49
2024/01/03 12:19:25;;;;;;;2.17;0.90;;;9.20;99.90;;;;;;5009935;28;20038;-49
2024/01/03 12:21:56;;;;;;;5.25;1.05;;;9.40;99.90;;;;;;5012635;28;20126;-48
2024/01/03 12:24:43;;;;;;;2.05;1.00;;;9.40;99.90;;;;;;5010616;28;20049;-52
2024/01/03 12:27:10;;;;;;;2.08;1.00;;;9.40;99.90;;;;;;5008388;28;20277;-48
2024/01/03 12:29:39;;;;;;;1.98;1.00;;;9.50;99.90;;;;;;5012431;28;20041;-48
2024/01/03 12:32:16;;;;;;;3.15;1.23;;;9.60;99.90;;;;;;5012371;28;20538;-49
2024/01/03 12:34:45;;;;;;;3.88;1.02;;;9.60;99.90;;;;;;5010506;28;20149;-51
2024/01/03 12:37:15;;;;;;;1.77;0.85;;;9.70;99.90;;;;;;5011748;28;20041;-51
2024/01/03 12:39:43;;;;;;;1.87;0.90;;;9.80;99.90;;;;;;5010757;28;20046;-48
2024/01/03 12:42:10;;;;;;;2.33;1.00;;;10.00;99.90;;;;;;5012080;28;20554;-49
2024/01/03 12:44:39;;;;;;;1.83;0.77;;;10.10;99.90;;;;;;5009613;28;20046;-55
2024/01/03 12:47:10;;;;;;;4.78;0.98;;;10.20;99.90;;;;;;5007050;28;20076;-54
2024/01/03 12:49:38;;;;;;;1.27;0.80;;;10.90;99.90;;;;;;5010007;28;20069;-54
2024/01/03 12:52:09;;;;;;;3.35;1.20;;;12.00;99.90;;;;;;5010530;28;20073;-52
2024/01/03 12:54:37;;;;;;;3.10;1.00;;;12.50;99.90;;;;;;5012422;28;20049;-53
2024/01/03 12:57:06;;;;;;;1.15;0.90;;;12.60;99.90;;;;;;5012286;28;20058;-52
2024/01/03 12:59:36;;;;;;;2.72;1.00;;;12.10;99.90;;;;;;5012500;28;20135;-51
2024/01/03 13:02:07;;;;;;;2.78;1.00;;;11.30;99.90;;;;;;5010454;28;20053;-54